This is the latest recevied weather packets stored in our database for station/object K5IDL. If no packets are shown the sender has not sent any weather packets the latest 1 day(s).
| Time | Temp. | Humidity | Pressure | Rain* | Wind** | Luminosity | Snow |
|---|---|---|---|---|---|---|---|
| 1836274708 | 27.22° C | 68% | 1017.1 hPa | 0 mm | 0 m/s | 0 W/m² | - |
| 1836274560 | 27.22° C | 69% | 1017.4 hPa | 0 mm | 0 m/s | 0 W/m² | - |
| 1836274406 | 27.78° C | 68% | 1017.2 hPa | 0 mm | 0 m/s | 0 W/m² | - |
| 1836274259 | 27.22° C | 68% | 1017.1 hPa | 0 mm | 0 m/s | 0 W/m² | - |
| 1836274104 | 27.78° C | 68% | 1017.5 hPa | 0 mm | 0 m/s | 0 W/m² | - |
| 1778048170 | 15.56° C | 76% | 1010.6 hPa | 0 mm | 0.45 m/s, 5° | 0 W/m² | - |
| 1778047868 | 15.56° C | 76% | 1010.6 hPa | 0 mm | 0 m/s | 0 W/m² | - |
| 1778047574 | 15.56° C | 76% | 1010.7 hPa | 0 mm | 0 m/s | 0 W/m² | - |
| 1778047263 | 16.11° C | 76% | 1010.6 hPa | 0 mm | 0.45 m/s, 291° | 0 W/m² | - |
| 1778046961 | 15.56° C | 77% | 1010.7 hPa | 0 mm | 0 m/s | 0 W/m² | - |
| 1778046657 | 16.11° C | 77% | 1010.8 hPa | 0 mm | 0.89 m/s, 245° | 0 W/m² | - |
| 1778046354 | 16.11° C | 76% | 1010.7 hPa | 0 mm | 0 m/s | 0 W/m² | - |
| 1778046050 | 16.11° C | 77% | 1010.5 hPa | 0 mm | 0.45 m/s, 350° | 0 W/m² | - |
| 1778045748 | 16.11° C | 77% | 1010.6 hPa | 0 mm | 0.45 m/s, 197° | 0 W/m² | - |
| 1778045446 | 16.11° C | 76% | 1010.5 hPa | 0 mm | 0.45 m/s, 324° | 0 W/m² | - |
| 1778045144 | 16.11° C | 76% | 1010.5 hPa | 0 mm | 0.45 m/s, 320° | 0 W/m² | - |
| 1778044842 | 16.67° C | 76% | 1010.6 hPa | 0 mm | 0 m/s | 0 W/m² | - |
| 1778044538 | 16.67° C | 76% | 1010.6 hPa | 0 mm | 0 m/s | 0 W/m² | - |
| 1778044235 | 16.67° C | 77% | 1010.7 hPa | 0 mm | 0.45 m/s, 345° | 0 W/m² | - |
| 1778043933 | 16.67° C | 78% | 1010.5 hPa | 0 mm | 0 m/s | 0 W/m² | - |
| 1778043630 | 16.67° C | 78% | 1010.6 hPa | 0 mm | 0 m/s | 0 W/m² | - |
| 1778043327 | 16.67° C | 78% | 1010.2 hPa | 0 mm | 0 m/s | 0 W/m² | - |
| 1778043023 | 17.22° C | 77% | 1010.5 hPa | 0 mm | 0 m/s | 0 W/m² | - |
| 1778042721 | 17.22° C | 77% | 1010.3 hPa | 0 mm | 0 m/s | 0 W/m² | - |
| 1778042418 | 17.22° C | 77% | 1010.6 hPa | 0 mm | 0 m/s | 0 W/m² | - |
* Rain latest hour (hover to see other rain measurements)
** Current wind speed in m/s (hover to see current wind gust speed)